createdAt,value
2019-02-22T00:00:41.612Z,23.80
2019-02-22T00:01:41.583Z,22.80
2019-02-22T00:02:41.599Z,22.60
2019-02-22T00:03:41.564Z,23.40
2019-02-22T00:04:41.562Z,22.70
2019-02-22T00:05:41.574Z,22.70
2019-02-22T00:06:41.542Z,22.30
2019-02-22T00:07:41.509Z,21.90
2019-02-22T00:08:41.499Z,22.90
2019-02-22T00:09:49.184Z,20.60
2019-02-22T00:10:42.529Z,21.30
2019-02-22T00:11:41.514Z,19.70
2019-02-22T00:12:41.477Z,20.80
2019-02-22T00:13:41.462Z,20.50
2019-02-22T00:14:41.440Z,21.00
2019-02-22T00:15:41.428Z,21.90
2019-02-22T00:16:41.602Z,21.10
2019-02-22T00:17:41.406Z,21.20
2019-02-22T00:18:41.389Z,21.60
2019-02-22T00:19:41.378Z,22.10
2019-02-22T00:20:41.475Z,21.60
2019-02-22T00:21:41.383Z,21.50
2019-02-22T00:22:41.345Z,21.30
2019-02-22T00:23:41.342Z,20.60
2019-02-22T00:24:41.321Z,20.50
2019-02-22T00:25:41.307Z,20.30
2019-02-22T00:26:41.333Z,19.70
2019-02-22T00:27:41.285Z,20.30
2019-02-22T00:28:41.365Z,19.80
2019-02-22T00:29:41.261Z,18.60
2019-02-22T00:30:41.261Z,17.40
2019-02-22T00:31:41.258Z,18.00
2019-02-22T00:32:42.524Z,18.10
2019-02-22T00:33:41.222Z,18.00
2019-02-22T00:34:41.212Z,17.80
2019-02-22T00:35:41.282Z,18.70
2019-02-22T00:36:41.247Z,18.90
2019-02-22T00:37:41.197Z,18.30
2019-02-22T00:38:41.175Z,18.20
2019-02-22T00:39:41.158Z,18.10
2019-02-22T00:40:41.146Z,18.50
2019-02-22T00:41:41.156Z,16.90
2019-02-22T00:42:41.121Z,18.70
2019-02-22T00:43:41.104Z,16.60
2019-02-22T00:44:41.094Z,16.20
2019-02-22T00:45:41.082Z,16.70
2019-02-22T00:46:41.109Z,17.70
2019-02-22T00:47:41.061Z,16.90
2019-02-22T00:48:41.067Z,17.60
2019-02-22T00:49:41.038Z,17.10
2019-02-22T00:50:41.050Z,16.60
2019-02-22T00:51:41.028Z,17.00
2019-02-22T00:52:41.018Z,16.10
2019-02-22T00:53:40.991Z,15.20
2019-02-22T00:54:40.985Z,15.00
2019-02-22T00:55:40.970Z,15.70
2019-02-22T00:56:41.483Z,15.60
2019-02-22T00:57:40.950Z,15.90
2019-02-22T00:58:40.934Z,15.10
2019-02-22T00:59:40.939Z,15.10
2019-02-22T01:00:40.913Z,14.60
2019-02-22T01:01:40.916Z,14.90
2019-02-22T01:02:40.894Z,15.30
2019-02-22T01:03:40.889Z,14.50
2019-02-22T01:04:40.866Z,14.30
2019-02-22T01:05:40.864Z,14.60
2019-02-22T01:06:40.875Z,13.60
2019-02-22T01:07:40.845Z,13.20
2019-02-22T01:08:40.830Z,12.90
2019-02-22T01:09:40.806Z,13.10
2019-02-22T01:10:40.806Z,13.60
2019-02-22T01:11:40.816Z,13.20
2019-02-22T01:12:40.778Z,12.40
2019-02-22T01:13:40.762Z,12.50
2019-02-22T01:14:40.763Z,11.60
2019-02-22T01:15:40.740Z,10.70
2019-02-22T01:16:40.745Z,11.10
2019-02-22T01:17:40.727Z,11.00
2019-02-22T01:18:40.712Z,11.40
2019-02-22T01:19:40.697Z,11.40
2019-02-22T01:20:40.696Z,10.30
2019-02-22T01:21:40.711Z,11.50
2019-02-22T01:22:40.671Z,11.70
2019-02-22T01:23:40.654Z,11.40
2019-02-22T01:24:40.664Z,11.00
2019-02-22T01:25:40.634Z,10.90
2019-02-22T01:26:40.627Z,11.10
2019-02-22T01:27:40.626Z,11.00
2019-02-22T01:28:41.426Z,11.40
2019-02-22T01:29:40.589Z,10.90
2019-02-22T01:30:40.580Z,10.40
2019-02-22T01:31:40.564Z,9.90
2019-02-22T01:32:40.578Z,10.30
2019-02-22T01:33:40.539Z,10.30
2019-02-22T01:34:40.531Z,10.40
2019-02-22T01:35:40.523Z,10.60
2019-02-22T01:36:40.507Z,9.90
2019-02-22T01:37:40.512Z,10.50
2019-02-22T01:38:40.485Z,10.20
2019-02-22T01:39:40.492Z,9.60
2019-02-22T01:40:43.609Z,10.50
2019-02-22T01:41:40.468Z,9.40
2019-02-22T01:42:40.453Z,9.20
2019-02-22T01:43:40.438Z,9.40
2019-02-22T01:44:40.417Z,9.10
2019-02-22T01:45:40.408Z,9.40
2019-02-22T01:46:40.390Z,9.10
2019-02-22T01:47:40.410Z,9.10
2019-02-22T01:48:40.376Z,9.10
2019-02-22T01:49:40.371Z,9.50
2019-02-22T01:50:40.352Z,9.00
2019-02-22T01:51:40.339Z,8.60
2019-02-22T01:52:40.342Z,8.80
2019-02-22T01:53:40.316Z,8.50
2019-02-22T01:54:40.315Z,8.50
2019-02-22T01:55:40.297Z,8.50
2019-02-22T01:56:40.277Z,8.10
2019-02-22T01:57:40.308Z,8.20
2019-02-22T01:58:48.361Z,7.70
2019-02-22T01:59:41.256Z,7.90
2019-02-22T02:00:40.246Z,8.10
2019-02-22T02:01:40.266Z,8.00
2019-02-22T02:02:40.228Z,7.80
2019-02-22T02:03:40.278Z,7.60
2019-02-22T02:04:40.187Z,7.50
2019-02-22T02:05:40.181Z,7.90
2019-02-22T02:06:40.385Z,7.70
2019-02-22T02:07:40.201Z,8.00
2019-02-22T02:08:40.148Z,7.70
2019-02-22T02:09:40.134Z,7.70
2019-02-22T02:10:40.224Z,7.70
2019-02-22T02:11:40.131Z,7.50
2019-02-22T02:12:40.128Z,7.40
2019-02-22T02:13:40.096Z,7.10
2019-02-22T02:14:40.076Z,7.60
2019-02-22T02:15:40.066Z,7.90
2019-02-22T02:16:40.058Z,7.60
2019-02-22T02:17:40.067Z,7.70
2019-02-22T02:18:40.037Z,7.50
2019-02-22T02:19:40.028Z,7.80
2019-02-22T02:20:40.017Z,7.60
2019-02-22T02:21:40.010Z,7.50
2019-02-22T02:22:40.124Z,7.90
2019-02-22T02:23:39.986Z,7.60
2019-02-22T02:24:39.962Z,7.70
2019-02-22T02:25:39.956Z,8.30
2019-02-22T02:26:39.944Z,8.00
2019-02-22T02:27:39.959Z,8.00
2019-02-22T02:28:39.930Z,7.80
2019-02-22T02:29:39.919Z,7.70
2019-02-22T02:30:39.896Z,7.80
2019-02-22T02:31:39.889Z,7.50
2019-02-22T02:32:39.903Z,8.10
2019-02-22T02:33:39.864Z,7.30
2019-02-22T02:34:39.857Z,7.20
2019-02-22T02:35:39.846Z,7.10
2019-02-22T02:36:39.887Z,7.10
2019-02-22T02:37:39.830Z,6.80
2019-02-22T02:38:39.812Z,7.60
2019-02-22T02:39:39.796Z,7.20
2019-02-22T02:40:39.789Z,7.30
2019-02-22T02:41:39.813Z,6.90
2019-02-22T02:42:39.763Z,6.90
2019-02-22T02:43:39.795Z,6.90
2019-02-22T02:44:39.755Z,6.80
2019-02-22T02:45:39.731Z,6.70
2019-02-22T02:46:39.726Z,6.50
2019-02-22T02:47:39.736Z,6.30
2019-02-22T02:48:39.708Z,6.00
2019-02-22T02:49:39.689Z,6.20
2019-02-22T02:50:39.670Z,5.90
2019-02-22T02:51:39.662Z,6.30
2019-02-22T02:52:39.644Z,6.20
2019-02-22T02:53:39.655Z,5.70
2019-02-22T02:54:39.623Z,6.00
2019-02-22T02:55:39.619Z,6.20
2019-02-22T02:56:39.601Z,6.50
2019-02-22T02:57:39.611Z,6.20
2019-02-22T02:58:39.604Z,6.20
2019-02-22T02:59:39.564Z,6.10
2019-02-22T03:00:39.559Z,6.10
2019-02-22T03:01:39.549Z,6.20
2019-02-22T03:02:39.543Z,6.60
2019-02-22T03:03:39.545Z,6.10
2019-02-22T03:04:39.508Z,6.00
2019-02-22T03:05:39.502Z,5.60
2019-02-22T03:06:39.485Z,5.40
2019-02-22T03:07:39.477Z,5.60
2019-02-22T03:08:39.481Z,5.70
2019-02-22T03:09:39.452Z,5.50
2019-02-22T03:10:39.440Z,5.70
2019-02-22T03:11:39.426Z,5.40
2019-02-22T03:12:39.427Z,5.40
2019-02-22T03:13:39.436Z,5.70
2019-02-22T03:14:39.407Z,5.30
2019-02-22T03:15:39.388Z,5.10
2019-02-22T03:16:39.384Z,5.50
2019-02-22T03:17:39.365Z,4.60
2019-02-22T03:18:39.368Z,4.60
2019-02-22T03:19:39.341Z,4.80
2019-02-22T03:20:39.347Z,5.20
2019-02-22T03:21:39.318Z,5.10
2019-02-22T03:22:39.303Z,5.00
2019-02-22T03:23:39.362Z,4.50
2019-02-22T03:24:39.328Z,4.00
2019-02-22T03:25:39.280Z,4.00
2019-02-22T03:26:39.263Z,3.80
2019-02-22T03:27:39.250Z,4.10
2019-02-22T03:28:39.259Z,3.80
2019-02-22T03:29:39.228Z,3.90
2019-02-22T03:30:39.229Z,4.20
2019-02-22T03:31:39.219Z,4.40
2019-02-22T03:32:39.202Z,4.10
2019-02-22T03:33:39.195Z,4.40
2019-02-22T03:35:42.453Z,4.30
2019-02-22T03:36:39.160Z,4.70
2019-02-22T03:37:39.301Z,4.60
2019-02-22T03:38:39.170Z,4.60
2019-02-22T03:39:39.155Z,4.10
2019-02-22T03:40:39.918Z,4.20
2019-02-22T03:42:40.427Z,3.60
2019-02-22T03:43:40.037Z,3.60
2019-02-22T03:44:39.113Z,3.50
2019-02-22T03:46:40.462Z,3.40
2019-02-22T03:48:40.209Z,3.60
2019-02-22T03:49:39.000Z,3.60
2019-02-22T03:50:38.992Z,3.50
2019-02-22T03:51:38.986Z,3.40
2019-02-22T03:52:38.969Z,3.50
2019-02-22T03:53:38.978Z,3.10
2019-02-22T03:54:38.996Z,3.20
2019-02-22T03:55:39.088Z,3.00
2019-02-22T03:56:39.039Z,3.10
2019-02-22T03:57:38.976Z,2.60
2019-02-22T03:58:38.914Z,3.10
2019-02-22T03:59:38.901Z,3.00
2019-02-22T04:00:38.886Z,3.50
2019-02-22T04:01:38.870Z,3.20
2019-02-22T04:02:38.937Z,2.90
2019-02-22T04:03:38.872Z,3.30
2019-02-22T04:04:38.831Z,3.50
2019-02-22T04:05:38.827Z,3.40
2019-02-22T04:06:38.820Z,3.50
2019-02-22T04:07:38.815Z,3.80
2019-02-22T04:08:38.805Z,3.40
2019-02-22T04:09:38.777Z,3.90
2019-02-22T04:10:39.002Z,3.20
2019-02-22T04:11:45.771Z,3.30
2019-02-22T04:12:39.757Z,3.50
2019-02-22T04:13:38.747Z,3.70
2019-02-22T04:14:38.724Z,3.50
2019-02-22T04:15:38.745Z,3.60
2019-02-22T04:16:38.701Z,3.90
2019-02-22T04:17:38.693Z,4.00
2019-02-22T04:18:38.697Z,4.00
2019-02-22T04:19:38.672Z,4.10
2019-02-22T04:20:38.652Z,4.60
2019-02-22T04:21:38.642Z,4.40
2019-02-22T04:22:38.644Z,4.90
2019-02-22T04:23:38.665Z,4.60
2019-02-22T04:24:38.613Z,4.60
2019-02-22T04:25:38.598Z,4.40
2019-02-22T04:26:38.589Z,4.50
2019-02-22T04:27:38.570Z,4.80
2019-02-22T04:28:38.750Z,5.00
2019-02-22T04:29:38.562Z,5.50
2019-02-22T04:30:38.544Z,5.60
2019-02-22T04:31:38.529Z,5.20
2019-02-22T04:32:38.514Z,5.80
2019-02-22T04:33:38.532Z,5.60
2019-02-22T04:34:38.502Z,5.90
2019-02-22T04:35:39.461Z,6.00
2019-02-22T04:36:38.479Z,6.50
2019-02-22T04:37:38.464Z,6.90
2019-02-22T04:38:38.521Z,6.50
2019-02-22T04:39:38.442Z,7.00
2019-02-22T04:40:38.457Z,7.20
2019-02-22T04:41:38.427Z,7.60
2019-02-22T04:42:38.417Z,8.00
2019-02-22T04:43:38.425Z,7.80
2019-02-22T04:44:38.411Z,7.90
2019-02-22T04:45:38.372Z,8.00
2019-02-22T04:46:38.375Z,8.10
2019-02-22T04:47:38.356Z,8.20
2019-02-22T04:48:38.337Z,8.10
2019-02-22T04:49:38.359Z,8.40
2019-02-22T04:50:38.331Z,9.00
2019-02-22T04:51:38.306Z,9.10
2019-02-22T04:52:38.307Z,9.00
2019-02-22T04:53:38.282Z,8.70
2019-02-22T04:54:38.290Z,9.20
2019-02-22T04:55:38.260Z,8.80
2019-02-22T04:56:38.246Z,8.80
2019-02-22T04:57:38.247Z,9.00
2019-02-22T04:58:38.249Z,8.90
2019-02-22T04:59:38.267Z,9.20
2019-02-22T05:00:38.209Z,9.10
2019-02-22T05:01:38.203Z,8.70
2019-02-22T05:02:38.185Z,9.50
2019-02-22T05:03:38.176Z,9.50
2019-02-22T05:04:38.189Z,9.10
2019-02-22T05:05:38.150Z,9.90
2019-02-22T05:06:38.140Z,9.80
2019-02-22T05:07:38.125Z,9.40
2019-02-22T05:08:38.118Z,10.20
2019-02-22T05:09:38.131Z,10.30
2019-02-22T05:10:38.090Z,10.80
2019-02-22T05:11:38.079Z,9.90
2019-02-22T05:12:38.067Z,10.70
2019-02-22T05:13:38.058Z,10.60
2019-02-22T05:14:38.062Z,10.50
2019-02-22T05:15:38.037Z,10.40
2019-02-22T05:16:38.023Z,10.10
2019-02-22T05:17:38.010Z,10.90
2019-02-22T05:18:38.037Z,12.00
2019-02-22T05:19:38.014Z,11.90
2019-02-22T05:20:37.985Z,12.20
2019-02-22T05:21:37.980Z,12.40
2019-02-22T05:22:37.956Z,13.80
2019-02-22T05:23:37.951Z,13.30
2019-02-22T05:24:37.950Z,13.60
2019-02-22T05:25:37.929Z,14.70
2019-02-22T05:26:37.918Z,14.30
2019-02-22T05:27:37.903Z,15.30
2019-02-22T05:28:37.888Z,15.20
2019-02-22T05:29:37.962Z,15.90
2019-02-22T05:30:37.866Z,16.60
2019-02-22T05:31:37.862Z,17.90
2019-02-22T05:32:37.843Z,17.70
2019-02-22T05:33:37.832Z,18.40
2019-02-22T05:34:37.840Z,18.10
2019-02-22T05:35:37.827Z,18.80
2019-02-22T05:36:37.800Z,19.00
2019-02-22T05:37:37.795Z,17.90
2019-02-22T05:38:37.777Z,19.40
2019-02-22T05:39:37.834Z,19.70
2019-02-22T05:40:37.755Z,19.40
2019-02-22T05:41:37.748Z,18.90
2019-02-22T05:42:37.730Z,19.50
2019-02-22T05:43:37.730Z,19.60
2019-02-22T05:44:37.737Z,20.30
2019-02-22T05:45:37.699Z,19.60
2019-02-22T05:46:37.687Z,20.30
2019-02-22T05:47:37.690Z,20.40
2019-02-22T05:48:38.894Z,20.20
2019-02-22T05:49:37.678Z,20.60
2019-02-22T05:50:37.648Z,19.50
2019-02-22T05:51:37.631Z,20.00
2019-02-22T05:52:37.618Z,19.30
2019-02-22T05:53:37.608Z,19.60
2019-02-22T05:54:37.619Z,18.50
2019-02-22T05:55:37.590Z,18.30
2019-02-22T05:56:37.585Z,18.50
2019-02-22T05:57:37.559Z,17.50
2019-02-22T05:58:37.558Z,17.60
2019-02-22T05:59:37.560Z,18.40
2019-02-22T06:00:37.535Z,17.10
2019-02-22T06:01:37.542Z,17.80
2019-02-22T06:02:37.506Z,17.30
2019-02-22T06:03:37.496Z,17.80
2019-02-22T06:04:37.493Z,18.10
2019-02-22T06:05:37.500Z,18.30
2019-02-22T06:06:37.469Z,17.80
2019-02-22T06:07:37.457Z,16.20
2019-02-22T06:08:37.440Z,17.70
2019-02-22T06:09:37.428Z,16.80
2019-02-22T06:10:37.438Z,17.10
2019-02-22T06:11:37.410Z,16.20
2019-02-22T06:12:37.407Z,16.80
2019-02-22T06:13:37.383Z,16.70
2019-02-22T06:14:37.388Z,16.70
2019-02-22T06:15:37.385Z,16.10
2019-02-22T06:16:37.350Z,15.60
2019-02-22T06:17:37.340Z,15.60
2019-02-22T06:18:37.344Z,15.00
2019-02-22T06:19:37.315Z,14.70
2019-02-22T06:20:37.327Z,13.90
2019-02-22T06:21:37.315Z,13.70
2019-02-22T06:22:37.284Z,13.90
2019-02-22T06:23:37.280Z,13.60
2019-02-22T06:24:37.258Z,13.20
2019-02-22T06:25:37.282Z,12.90
2019-02-22T06:26:37.236Z,12.40
2019-02-22T06:27:37.242Z,11.60
2019-02-22T06:28:37.215Z,10.40
2019-02-22T06:29:37.208Z,10.00
2019-02-22T06:30:37.324Z,9.70
2019-02-22T06:31:37.186Z,9.20
2019-02-22T06:32:37.181Z,8.80
2019-02-22T06:33:37.154Z,8.20
2019-02-22T06:34:37.146Z,8.80
2019-02-22T06:35:37.160Z,8.40
2019-02-22T06:36:37.127Z,8.60
2019-02-22T06:37:37.117Z,8.80
2019-02-22T06:38:37.104Z,8.50
2019-02-22T06:39:37.093Z,8.00
2019-02-22T06:40:37.167Z,7.60
2019-02-22T06:41:37.072Z,7.20
2019-02-22T06:42:45.213Z,7.00
2019-02-22T06:43:38.044Z,6.70
2019-02-22T06:44:37.038Z,6.40
2019-02-22T06:45:37.046Z,6.60
2019-02-22T06:46:37.024Z,6.40
2019-02-22T06:47:37.006Z,6.70
2019-02-22T06:48:36.991Z,6.50
2019-02-22T06:49:36.982Z,6.50
2019-02-22T06:50:36.988Z,6.10
2019-02-22T06:51:36.958Z,6.60
2019-02-22T06:52:36.959Z,6.70
2019-02-22T06:53:36.944Z,7.30
2019-02-22T06:54:36.921Z,6.10
2019-02-22T06:55:36.934Z,6.30
2019-02-22T06:56:36.905Z,6.60
2019-02-22T06:57:36.900Z,7.20
2019-02-22T06:58:36.882Z,7.20
2019-02-22T06:59:36.866Z,6.50
2019-02-22T07:00:36.884Z,6.40
2019-02-22T07:01:36.842Z,6.70
2019-02-22T07:02:36.834Z,6.70
2019-02-22T07:03:36.824Z,6.40
2019-02-22T07:04:36.815Z,6.20
2019-02-22T07:05:36.822Z,5.30
2019-02-22T07:06:36.789Z,5.50
2019-02-22T07:07:36.782Z,5.50
2019-02-22T07:08:36.769Z,5.10
2019-02-22T07:09:36.760Z,5.20
2019-02-22T07:10:36.766Z,4.80
2019-02-22T07:11:37.878Z,5.30
2019-02-22T07:12:36.723Z,5.00
2019-02-22T07:13:36.708Z,5.10
2019-02-22T07:14:36.700Z,4.80
2019-02-22T07:15:36.710Z,4.70
2019-02-22T07:16:36.677Z,4.10
2019-02-22T07:17:36.662Z,4.20
2019-02-22T07:18:36.651Z,3.70
2019-02-22T07:19:36.646Z,3.70
2019-02-22T07:20:36.644Z,3.70
2019-02-22T07:21:49.181Z,3.30
2019-02-22T07:22:37.606Z,3.60
2019-02-22T07:23:36.593Z,3.30
2019-02-22T07:24:36.590Z,3.40
2019-02-22T07:25:36.594Z,3.10
2019-02-22T07:26:36.566Z,3.30
2019-02-22T07:27:36.554Z,3.30
2019-02-22T07:28:36.544Z,3.40
2019-02-22T07:29:36.540Z,3.10
2019-02-22T07:30:36.547Z,3.20
2019-02-22T07:31:36.509Z,3.30
2019-02-22T07:32:36.504Z,3.10
2019-02-22T07:33:36.488Z,3.30
2019-02-22T07:34:36.476Z,3.60
2019-02-22T07:35:36.481Z,3.20
2019-02-22T07:36:36.467Z,3.30
2019-02-22T07:37:36.444Z,3.30
2019-02-22T07:38:36.444Z,3.20
2019-02-22T07:39:36.419Z,3.00
2019-02-22T07:40:36.429Z,3.40
2019-02-22T07:41:36.399Z,3.30
2019-02-22T07:42:36.388Z,3.20
2019-02-22T07:43:36.390Z,3.40
2019-02-22T07:44:36.380Z,3.30
2019-02-22T07:45:36.386Z,3.40
2019-02-22T07:46:36.346Z,3.00
2019-02-22T07:47:36.330Z,3.00
2019-02-22T07:48:36.318Z,3.00
2019-02-22T07:49:36.308Z,3.30
2019-02-22T07:50:36.316Z,3.20
2019-02-22T07:51:36.282Z,3.40
2019-02-22T07:52:36.278Z,3.10
2019-02-22T07:53:36.279Z,3.30
2019-02-22T07:54:36.249Z,3.10
2019-02-22T07:55:36.264Z,3.10
2019-02-22T07:56:36.232Z,3.40
2019-02-22T07:57:36.220Z,2.90
2019-02-22T07:58:36.208Z,2.80
2019-02-22T07:59:36.196Z,3.00
2019-02-22T08:00:36.190Z,3.00
2019-02-22T08:01:46.822Z,3.30
2019-02-22T08:02:37.160Z,2.80
2019-02-22T08:03:37.451Z,3.20
2019-02-22T08:04:36.140Z,2.90
2019-02-22T08:05:36.129Z,3.00
2019-02-22T08:06:36.139Z,2.90
2019-02-22T08:07:36.110Z,2.80
2019-02-22T08:08:36.100Z,2.70
2019-02-22T08:09:36.086Z,3.00
2019-02-22T08:10:36.076Z,2.90
2019-02-22T08:11:36.078Z,2.70
2019-02-22T08:12:36.054Z,2.60
2019-02-22T08:13:36.040Z,2.40
2019-02-22T08:14:36.030Z,2.50
2019-02-22T08:15:36.016Z,2.60
2019-02-22T08:16:36.026Z,2.30
2019-02-22T08:17:35.995Z,2.50
2019-02-22T08:18:35.988Z,2.80
2019-02-22T08:19:35.972Z,2.60
2019-02-22T08:20:35.962Z,2.40
2019-02-22T08:21:35.968Z,3.00
2019-02-22T08:22:35.943Z,2.90
2019-02-22T08:23:35.930Z,2.80
2019-02-22T08:24:35.924Z,2.40
2019-02-22T08:25:35.902Z,2.70
2019-02-22T08:26:36.409Z,2.60
2019-02-22T08:27:35.882Z,2.80
2019-02-22T08:28:35.874Z,2.80
2019-02-22T08:29:38.225Z,2.70
2019-02-22T08:30:35.849Z,2.90
2019-02-22T08:31:35.865Z,2.20
2019-02-22T08:32:35.826Z,2.70
2019-02-22T08:33:35.819Z,2.80
2019-02-22T08:34:35.814Z,2.80
2019-02-22T08:35:35.792Z,2.60
2019-02-22T08:36:35.805Z,2.40
2019-02-22T08:37:35.770Z,3.00
2019-02-22T08:38:35.771Z,2.50
2019-02-22T08:39:35.755Z,2.70
2019-02-22T08:40:35.742Z,3.40
2019-02-22T08:41:35.752Z,2.80
2019-02-22T08:42:35.717Z,2.60
2019-02-22T08:43:35.709Z,2.40
2019-02-22T08:44:35.694Z,2.50
2019-02-22T08:45:35.684Z,2.90
2019-02-22T08:46:35.688Z,3.00
2019-02-22T08:47:35.686Z,3.00
2019-02-22T08:48:35.646Z,2.70
2019-02-22T08:49:35.632Z,2.80
2019-02-22T08:50:35.627Z,3.00
2019-02-22T08:51:35.637Z,2.90
2019-02-22T08:52:35.608Z,2.80
2019-02-22T08:53:35.590Z,2.90
2019-02-22T08:54:46.291Z,2.70
2019-02-22T08:55:36.821Z,2.80
2019-02-22T08:56:35.578Z,2.90
2019-02-22T08:57:35.544Z,2.60
2019-02-22T08:58:35.536Z,2.60
2019-02-22T08:59:35.536Z,2.90
2019-02-22T09:00:35.512Z,2.70
2019-02-22T09:01:35.848Z,2.50
2019-02-22T09:02:35.504Z,2.70
2019-02-22T09:03:35.478Z,2.70
2019-02-22T09:04:35.475Z,2.40
2019-02-22T09:05:35.453Z,2.50
2019-02-22T09:06:35.463Z,2.50
2019-02-22T09:07:35.434Z,2.30
2019-02-22T09:08:35.423Z,2.30
2019-02-22T09:09:35.419Z,2.10
2019-02-22T09:10:35.407Z,2.30
2019-02-22T09:11:35.418Z,2.30
2019-02-22T09:12:35.379Z,2.00
2019-02-22T09:13:43.078Z,2.50
2019-02-22T09:14:36.358Z,2.60
2019-02-22T09:15:35.346Z,2.30
2019-02-22T09:16:35.360Z,2.60
2019-02-22T09:17:35.324Z,2.40
2019-02-22T09:18:35.312Z,2.30
2019-02-22T09:19:35.303Z,2.30
2019-02-22T09:20:35.295Z,2.50
2019-02-22T09:21:35.294Z,2.50
2019-02-22T09:22:35.271Z,2.30
2019-02-22T09:23:35.257Z,2.20
2019-02-22T09:24:35.257Z,2.40
2019-02-22T09:25:35.242Z,2.20
2019-02-22T09:26:35.254Z,2.60
2019-02-22T09:27:35.216Z,2.10
2019-02-22T09:28:35.205Z,1.90
2019-02-22T09:29:35.187Z,2.30
2019-02-22T09:30:35.183Z,2.30
2019-02-22T09:31:35.178Z,2.50
2019-02-22T09:32:35.173Z,2.20
2019-02-22T09:33:35.149Z,2.70
2019-02-22T09:34:35.133Z,2.30
2019-02-22T09:35:35.214Z,1.90
2019-02-22T09:36:35.110Z,2.40
2019-02-22T09:37:35.114Z,2.50
2019-02-22T09:38:35.086Z,2.40
2019-02-22T09:39:35.079Z,2.40
2019-02-22T09:40:35.075Z,2.20
2019-02-22T09:41:35.050Z,2.30
2019-02-22T09:42:35.064Z,2.40
2019-02-22T09:43:35.033Z,2.10
2019-02-22T09:44:35.023Z,2.20
2019-02-22T09:45:35.018Z,2.10
2019-02-22T09:46:35.006Z,2.20
2019-02-22T09:47:35.077Z,2.20
2019-02-22T09:48:34.987Z,2.60
2019-02-22T09:49:34.963Z,2.30
2019-02-22T09:50:34.959Z,2.00
2019-02-22T09:51:34.945Z,2.30
2019-02-22T09:52:34.946Z,2.00
2019-02-22T09:53:34.918Z,2.20
2019-02-22T09:54:34.953Z,2.20
2019-02-22T09:55:34.905Z,2.20
2019-02-22T09:56:34.888Z,2.10
2019-02-22T09:57:34.892Z,2.20
2019-02-22T09:58:34.866Z,2.20
2019-02-22T09:59:34.854Z,2.70
2019-02-22T10:00:34.840Z,2.10
2019-02-22T10:01:34.840Z,2.30
2019-02-22T10:02:34.840Z,2.20
2019-02-22T10:03:34.809Z,3.00
2019-02-22T10:04:34.797Z,2.40
2019-02-22T10:05:34.810Z,2.30
2019-02-22T10:06:34.781Z,2.50
2019-02-22T10:07:34.790Z,2.50
2019-02-22T10:08:34.748Z,2.60
2019-02-22T10:09:34.738Z,4.60
2019-02-22T10:10:34.728Z,2.70
2019-02-22T10:11:34.727Z,2.50
2019-02-22T10:12:34.728Z,2.40
2019-02-22T10:13:34.704Z,2.40
2019-02-22T10:14:34.689Z,2.30
2019-02-22T10:15:34.670Z,3.00
2019-02-22T10:16:34.663Z,2.30
2019-02-22T10:17:34.673Z,2.40
2019-02-22T10:18:34.647Z,2.20
2019-02-22T10:19:34.624Z,2.30
2019-02-22T10:20:34.618Z,2.50
2019-02-22T10:21:34.605Z,2.30
2019-02-22T10:22:34.609Z,2.20
2019-02-22T10:23:34.585Z,2.20
2019-02-22T10:24:34.581Z,2.70
2019-02-22T10:25:34.561Z,2.20
2019-02-22T10:26:34.550Z,2.40
2019-02-22T10:27:34.555Z,2.40
2019-02-22T10:28:34.531Z,2.50
2019-02-22T10:29:34.514Z,2.40
2019-02-22T10:30:34.510Z,2.30
2019-02-22T10:31:34.488Z,2.30
2019-02-22T10:32:34.495Z,2.10
2019-02-22T10:33:36.885Z,2.40
2019-02-22T10:34:34.458Z,2.40
2019-02-22T10:35:34.448Z,2.20
2019-02-22T10:36:44.474Z,2.60
2019-02-22T10:37:35.496Z,2.40
2019-02-22T10:38:36.018Z,2.00
2019-02-22T10:39:34.407Z,2.30
2019-02-22T10:40:34.387Z,2.40
2019-02-22T10:41:34.386Z,2.30
2019-02-22T10:42:34.399Z,2.40
2019-02-22T10:43:34.353Z,2.30
2019-02-22T10:44:34.343Z,2.30
2019-02-22T10:45:36.810Z,2.20
2019-02-22T10:46:34.322Z,2.50
2019-02-22T10:47:34.340Z,2.10
2019-02-22T10:48:34.300Z,2.60
2019-02-22T10:49:34.287Z,2.40
2019-02-22T10:50:34.278Z,2.20
2019-02-22T10:51:34.316Z,2.30
2019-02-22T10:52:34.318Z,2.10
2019-02-22T10:53:34.253Z,2.30
2019-02-22T10:54:34.239Z,2.10
2019-02-22T10:55:34.224Z,2.30
2019-02-22T10:56:34.206Z,2.20
2019-02-22T10:57:34.212Z,2.20
2019-02-22T10:58:34.184Z,2.20
2019-02-22T10:59:34.188Z,2.30
2019-02-22T11:00:34.164Z,2.60
2019-02-22T11:01:34.150Z,2.50
2019-02-22T11:02:34.156Z,2.30
2019-02-22T11:03:34.132Z,2.30
2019-02-22T11:04:34.120Z,2.20
2019-02-22T11:05:34.110Z,2.30
2019-02-22T11:06:34.093Z,2.10
2019-02-22T11:07:34.106Z,1.90
2019-02-22T11:08:34.078Z,2.10
2019-02-22T11:09:34.069Z,1.90
2019-02-22T11:10:34.083Z,2.30
2019-02-22T11:11:34.037Z,2.30
2019-02-22T11:12:34.030Z,2.30
2019-02-22T11:13:34.045Z,2.30
2019-02-22T11:14:34.004Z,2.10
2019-02-22T11:15:34.002Z,1.90
2019-02-22T11:16:33.990Z,2.20
2019-02-22T11:17:33.975Z,1.90
2019-02-22T11:18:33.973Z,2.30
2019-02-22T11:19:33.950Z,1.90
2019-02-22T11:20:33.938Z,1.80
2019-02-22T11:21:33.932Z,2.10
2019-02-22T11:22:33.925Z,1.90
2019-02-22T11:23:33.921Z,2.00
2019-02-22T11:24:33.895Z,2.20
2019-02-22T11:25:33.887Z,2.00
2019-02-22T11:26:33.887Z,2.00
2019-02-22T11:27:33.859Z,2.20
2019-02-22T11:28:33.871Z,2.00
2019-02-22T11:29:33.834Z,2.00
2019-02-22T11:30:33.829Z,2.00
2019-02-22T11:31:33.819Z,2.00
2019-02-22T11:32:33.806Z,1.90
2019-02-22T11:33:33.813Z,2.30
2019-02-22T11:34:33.790Z,2.10
2019-02-22T11:35:33.770Z,2.10
2019-02-22T11:36:33.762Z,2.00
2019-02-22T11:37:33.749Z,2.00
2019-02-22T11:38:33.749Z,2.30
2019-02-22T11:39:33.738Z,2.30
2019-02-22T11:40:33.833Z,2.10
2019-02-22T11:41:33.707Z,1.70
2019-02-22T11:42:33.694Z,2.20
2019-02-22T11:43:33.724Z,2.00
2019-02-22T11:44:40.261Z,2.10
2019-02-22T11:45:34.658Z,2.10
2019-02-22T11:46:33.654Z,2.10
2019-02-22T11:47:33.644Z,2.40
2019-02-22T11:48:33.648Z,1.90
2019-02-22T11:49:33.616Z,1.90
2019-02-22T11:50:33.615Z,2.00
2019-02-22T11:51:33.610Z,2.10
2019-02-22T11:52:33.585Z,2.20
2019-02-22T11:53:33.628Z,2.00
2019-02-22T11:54:33.568Z,2.20
2019-02-22T11:55:33.550Z,2.00
2019-02-22T11:56:33.547Z,1.90
2019-02-22T11:57:33.537Z,1.90
2019-02-22T11:58:33.535Z,2.00
2019-02-22T11:59:33.505Z,2.10
2019-02-22T12:00:33.498Z,1.80
2019-02-22T12:01:33.488Z,2.10
2019-02-22T12:02:33.478Z,2.00
2019-02-22T12:03:33.486Z,1.90
2019-02-22T12:04:33.450Z,2.10
2019-02-22T12:05:33.443Z,1.90
2019-02-22T12:06:33.434Z,1.80
2019-02-22T12:07:33.442Z,1.70
2019-02-22T12:08:33.442Z,2.00
2019-02-22T12:09:33.399Z,2.00
2019-02-22T12:10:33.397Z,2.00
2019-02-22T12:11:33.376Z,2.20
2019-02-22T12:12:33.369Z,2.20
2019-02-22T12:13:33.371Z,2.00
2019-02-22T12:14:33.367Z,2.10
2019-02-22T12:15:33.334Z,1.90
2019-02-22T12:16:33.365Z,2.10
2019-02-22T12:17:33.314Z,1.90
2019-02-22T12:18:33.319Z,2.40
2019-02-22T12:19:33.298Z,2.20
2019-02-22T12:20:33.291Z,2.10
2019-02-22T12:21:33.266Z,1.90
2019-02-22T12:22:33.329Z,2.20
2019-02-22T12:23:33.263Z,1.90
2019-02-22T12:24:34.068Z,1.90
2019-02-22T12:25:33.224Z,1.80
2019-02-22T12:26:33.213Z,1.90
2019-02-22T12:27:33.212Z,2.10
2019-02-22T12:28:33.217Z,2.20
2019-02-22T12:29:33.185Z,1.80
2019-02-22T12:30:33.180Z,2.10
2019-02-22T12:31:33.168Z,1.70
2019-02-22T12:32:33.142Z,1.90
2019-02-22T12:33:33.148Z,2.00
2019-02-22T12:34:33.123Z,2.00
2019-02-22T12:35:33.127Z,2.00
2019-02-22T12:36:33.105Z,2.10
2019-02-22T12:37:33.095Z,1.80
2019-02-22T12:38:33.107Z,2.10
2019-02-22T12:39:33.068Z,2.20
2019-02-22T12:40:33.061Z,1.90
2019-02-22T12:41:33.047Z,2.10
2019-02-22T12:42:33.042Z,1.90
2019-02-22T12:43:33.047Z,1.90
2019-02-22T12:44:33.010Z,2.20
2019-02-22T12:45:32.999Z,2.20
2019-02-22T12:46:32.991Z,1.70
2019-02-22T12:47:32.979Z,2.00
2019-02-22T12:48:32.985Z,2.20
2019-02-22T12:49:32.955Z,2.00
2019-02-22T12:50:33.047Z,2.00
2019-02-22T12:51:32.938Z,2.20
2019-02-22T12:52:32.936Z,2.10
2019-02-22T12:53:32.927Z,1.90
2019-02-22T12:54:32.906Z,2.00
2019-02-22T12:55:32.884Z,2.20
2019-02-22T12:56:58.617Z,1.80
2019-02-22T12:57:33.868Z,2.00
2019-02-22T12:58:32.874Z,2.10
2019-02-22T12:59:32.849Z,2.00
2019-02-22T13:00:32.845Z,2.40
2019-02-22T13:01:32.823Z,2.10
2019-02-22T13:02:32.823Z,2.30
2019-02-22T13:03:32.844Z,2.20
2019-02-22T13:04:32.785Z,2.00
2019-02-22T13:05:32.783Z,2.20
2019-02-22T13:06:32.784Z,2.10
2019-02-22T13:07:32.808Z,2.10
2019-02-22T13:08:32.761Z,2.20
2019-02-22T13:09:36.217Z,2.10
2019-02-22T13:10:32.773Z,2.10
2019-02-22T13:11:32.713Z,2.10
2019-02-22T13:12:32.701Z,2.30
2019-02-22T13:13:32.710Z,2.00
2019-02-22T13:14:32.678Z,2.00
2019-02-22T13:15:32.677Z,2.30
2019-02-22T13:16:32.655Z,1.90